sensor_id;sensor_type;location;lat;lon;timestamp;P1;durP1;ratioP1;P2;durP2;ratioP2
21822;SDS011;11074;48.596;9.238;2023-01-29T00:01:34;10.52;;;7.10;;
21822;SDS011;11074;48.596;9.238;2023-01-29T00:04:00;11.15;;;7.80;;
21822;SDS011;11074;48.596;9.238;2023-01-29T00:06:26;10.98;;;7.90;;
21822;SDS011;11074;48.596;9.238;2023-01-29T00:08:52;9.85;;;7.15;;
21822;SDS011;11074;48.596;9.238;2023-01-29T00:11:17;9.65;;;7.57;;
21822;SDS011;11074;48.596;9.238;2023-01-29T00:13:44;10.25;;;7.60;;
21822;SDS011;11074;48.596;9.238;2023-01-29T00:16:10;9.82;;;7.25;;
21822;SDS011;11074;48.596;9.238;2023-01-29T00:18:36;11.68;;;7.50;;
21822;SDS011;11074;48.596;9.238;2023-01-29T00:21:14;10.38;;;7.40;;
21822;SDS011;11074;48.596;9.238;2023-01-29T00:23:43;10.20;;;7.47;;
21822;SDS011;11074;48.596;9.238;2023-01-29T00:26:10;10.63;;;7.65;;
21822;SDS011;11074;48.596;9.238;2023-01-29T00:28:37;8.80;;;6.65;;
21822;SDS011;11074;48.596;9.238;2023-01-29T00:31:07;10.30;;;7.22;;
21822;SDS011;11074;48.596;9.238;2023-01-29T00:33:40;10.20;;;7.28;;
21822;SDS011;11074;48.596;9.238;2023-01-29T00:36:09;9.20;;;7.10;;
21822;SDS011;11074;48.596;9.238;2023-01-29T00:38:38;10.33;;;7.37;;
21822;SDS011;11074;48.596;9.238;2023-01-29T00:41:05;10.88;;;7.30;;
21822;SDS011;11074;48.596;9.238;2023-01-29T00:43:51;10.35;;;7.03;;
21822;SDS011;11074;48.596;9.238;2023-01-29T00:46:35;10.23;;;7.45;;
21822;SDS011;11074;48.596;9.238;2023-01-29T00:49:00;9.98;;;7.10;;
21822;SDS011;11074;48.596;9.238;2023-01-29T00:51:26;9.45;;;6.97;;
21822;SDS011;11074;48.596;9.238;2023-01-29T00:53:52;9.35;;;6.78;;
21822;SDS011;11074;48.596;9.238;2023-01-29T00:56:22;10.02;;;6.95;;
21822;SDS011;11074;48.596;9.238;2023-01-29T00:58:53;10.73;;;6.97;;
21822;SDS011;11074;48.596;9.238;2023-01-29T01:01:19;9.68;;;7.13;;
21822;SDS011;11074;48.596;9.238;2023-01-29T01:04:05;9.35;;;7.30;;
21822;SDS011;11074;48.596;9.238;2023-01-29T01:06:35;10.18;;;7.40;;
21822;SDS011;11074;48.596;9.238;2023-01-29T01:09:06;10.00;;;7.40;;
21822;SDS011;11074;48.596;9.238;2023-01-29T01:11:51;9.68;;;6.78;;
21822;SDS011;11074;48.596;9.238;2023-01-29T01:14:17;11.43;;;7.18;;
21822;SDS011;11074;48.596;9.238;2023-01-29T01:16:45;10.80;;;6.97;;
21822;SDS011;11074;48.596;9.238;2023-01-29T01:19:12;10.88;;;6.85;;
21822;SDS011;11074;48.596;9.238;2023-01-29T01:21:39;12.60;;;7.75;;
21822;SDS011;11074;48.596;9.238;2023-01-29T01:24:09;9.48;;;6.93;;
21822;SDS011;11074;48.596;9.238;2023-01-29T01:26:36;14.38;;;7.47;;
21822;SDS011;11074;48.596;9.238;2023-01-29T01:29:02;11.50;;;6.72;;
21822;SDS011;11074;48.596;9.238;2023-01-29T01:31:28;9.25;;;7.00;;
21822;SDS011;11074;48.596;9.238;2023-01-29T01:33:54;10.02;;;7.40;;
21822;SDS011;11074;48.596;9.238;2023-01-29T01:36:20;9.75;;;7.32;;
21822;SDS011;11074;48.596;9.238;2023-01-29T01:38:46;10.50;;;7.38;;
21822;SDS011;11074;48.596;9.238;2023-01-29T01:41:15;9.77;;;7.32;;
21822;SDS011;11074;48.596;9.238;2023-01-29T01:43:47;10.35;;;6.90;;
21822;SDS011;11074;48.596;9.238;2023-01-29T01:46:16;9.00;;;6.70;;
21822;SDS011;11074;48.596;9.238;2023-01-29T01:48:43;9.68;;;6.90;;
21822;SDS011;11074;48.596;9.238;2023-01-29T01:51:16;10.10;;;7.10;;
21822;SDS011;11074;48.596;9.238;2023-01-29T01:53:49;9.13;;;6.90;;
21822;SDS011;11074;48.596;9.238;2023-01-29T01:56:42;9.43;;;7.10;;
21822;SDS011;11074;48.596;9.238;2023-01-29T01:59:19;9.57;;;7.28;;
21822;SDS011;11074;48.596;9.238;2023-01-29T02:01:48;9.60;;;6.57;;
21822;SDS011;11074;48.596;9.238;2023-01-29T02:04:21;10.45;;;7.13;;
21822;SDS011;11074;48.596;9.238;2023-01-29T02:07:10;10.38;;;7.25;;
21822;SDS011;11074;48.596;9.238;2023-01-29T02:10:08;10.18;;;6.95;;
21822;SDS011;11074;48.596;9.238;2023-01-29T02:12:39;10.50;;;7.10;;
21822;SDS011;11074;48.596;9.238;2023-01-29T02:15:08;9.93;;;6.80;;
21822;SDS011;11074;48.596;9.238;2023-01-29T02:17:34;10.55;;;7.20;;
21822;SDS011;11074;48.596;9.238;2023-01-29T02:20:08;9.38;;;7.10;;
21822;SDS011;11074;48.596;9.238;2023-01-29T02:31:17;10.80;;;7.00;;
21822;SDS011;11074;48.596;9.238;2023-01-29T02:42:10;9.98;;;7.10;;
21822;SDS011;11074;48.596;9.238;2023-01-29T02:44:59;9.05;;;6.53;;
21822;SDS011;11074;48.596;9.238;2023-01-29T02:50:26;10.18;;;6.97;;
21822;SDS011;11074;48.596;9.238;2023-01-29T02:53:13;9.88;;;7.13;;
21822;SDS011;11074;48.596;9.238;2023-01-29T02:55:45;9.27;;;7.10;;
21822;SDS011;11074;48.596;9.238;2023-01-29T02:58:44;11.00;;;6.85;;
21822;SDS011;11074;48.596;9.238;2023-01-29T03:01:47;9.00;;;6.88;;
21822;SDS011;11074;48.596;9.238;2023-01-29T03:04:31;10.32;;;7.32;;
21822;SDS011;11074;48.596;9.238;2023-01-29T03:07:07;9.07;;;6.75;;
21822;SDS011;11074;48.596;9.238;2023-01-29T03:10:01;10.75;;;7.53;;
21822;SDS011;11074;48.596;9.238;2023-01-29T03:12:36;10.57;;;6.95;;
21822;SDS011;11074;48.596;9.238;2023-01-29T03:15:08;10.77;;;6.32;;
21822;SDS011;11074;48.596;9.238;2023-01-29T03:18:04;10.77;;;6.97;;
21822;SDS011;11074;48.596;9.238;2023-01-29T03:20:42;9.50;;;6.47;;
21822;SDS011;11074;48.596;9.238;2023-01-29T03:23:23;10.23;;;7.10;;
21822;SDS011;11074;48.596;9.238;2023-01-29T03:26:13;9.48;;;6.60;;
21822;SDS011;11074;48.596;9.238;2023-01-29T03:29:00;9.75;;;7.05;;
21822;SDS011;11074;48.596;9.238;2023-01-29T03:31:48;10.50;;;6.78;;
21822;SDS011;11074;48.596;9.238;2023-01-29T03:34:32;10.38;;;6.93;;
21822;SDS011;11074;48.596;9.238;2023-01-29T03:37:26;8.90;;;6.80;;
21822;SDS011;11074;48.596;9.238;2023-01-29T03:40:04;9.77;;;6.35;;
21822;SDS011;11074;48.596;9.238;2023-01-29T03:48:24;7.65;;;6.28;;
21822;SDS011;11074;48.596;9.238;2023-01-29T03:51:08;9.77;;;6.00;;
21822;SDS011;11074;48.596;9.238;2023-01-29T03:54:30;10.25;;;7.18;;
21822;SDS011;11074;48.596;9.238;2023-01-29T03:57:28;12.85;;;7.10;;
21822;SDS011;11074;48.596;9.238;2023-01-29T04:00:05;8.85;;;6.18;;
21822;SDS011;11074;48.596;9.238;2023-01-29T04:02:51;11.55;;;7.15;;
21822;SDS011;11074;48.596;9.238;2023-01-29T04:05:44;11.55;;;7.43;;
21822;SDS011;11074;48.596;9.238;2023-01-29T04:08:30;10.48;;;6.90;;
21822;SDS011;11074;48.596;9.238;2023-01-29T04:11:07;11.02;;;6.68;;
21822;SDS011;11074;48.596;9.238;2023-01-29T04:16:05;11.88;;;6.72;;
21822;SDS011;11074;48.596;9.238;2023-01-29T04:18:43;14.70;;;7.28;;
21822;SDS011;11074;48.596;9.238;2023-01-29T04:21:11;9.20;;;6.65;;
21822;SDS011;11074;48.596;9.238;2023-01-29T04:23:39;10.68;;;6.97;;
21822;SDS011;11074;48.596;9.238;2023-01-29T04:26:24;11.23;;;6.82;;
21822;SDS011;11074;48.596;9.238;2023-01-29T04:34:42;10.13;;;6.57;;
21822;SDS011;11074;48.596;9.238;2023-01-29T04:46:14;10.57;;;6.93;;
21822;SDS011;11074;48.596;9.238;2023-01-29T04:49:01;9.88;;;6.75;;
21822;SDS011;11074;48.596;9.238;2023-01-29T04:54:56;9.30;;;6.47;;
21822;SDS011;11074;48.596;9.238;2023-01-29T05:00:19;10.10;;;7.78;;
21822;SDS011;11074;48.596;9.238;2023-01-29T05:03:04;9.00;;;6.80;;
21822;SDS011;11074;48.596;9.238;2023-01-29T05:05:38;9.18;;;6.65;;
21822;SDS011;11074;48.596;9.238;2023-01-29T05:08:09;10.35;;;7.57;;
21822;SDS011;11074;48.596;9.238;2023-01-29T05:10:40;10.43;;;7.03;;
21822;SDS011;11074;48.596;9.238;2023-01-29T05:13:10;10.38;;;7.10;;
21822;SDS011;11074;48.596;9.238;2023-01-29T05:15:40;12.35;;;7.10;;
21822;SDS011;11074;48.596;9.238;2023-01-29T05:18:44;9.32;;;6.97;;
21822;SDS011;11074;48.596;9.238;2023-01-29T05:21:11;10.82;;;6.90;;
21822;SDS011;11074;48.596;9.238;2023-01-29T05:23:37;8.88;;;7.00;;
21822;SDS011;11074;48.596;9.238;2023-01-29T05:26:02;10.20;;;7.20;;
21822;SDS011;11074;48.596;9.238;2023-01-29T05:28:29;12.02;;;7.10;;
21822;SDS011;11074;48.596;9.238;2023-01-29T05:30:55;10.90;;;7.32;;
21822;SDS011;11074;48.596;9.238;2023-01-29T05:33:23;11.77;;;7.50;;
21822;SDS011;11074;48.596;9.238;2023-01-29T05:35:56;10.68;;;7.22;;
21822;SDS011;11074;48.596;9.238;2023-01-29T05:38:24;9.85;;;7.07;;
21822;SDS011;11074;48.596;9.238;2023-01-29T05:40:53;9.90;;;6.68;;
21822;SDS011;11074;48.596;9.238;2023-01-29T05:43:19;9.68;;;6.68;;
21822;SDS011;11074;48.596;9.238;2023-01-29T05:45:57;9.88;;;6.82;;
21822;SDS011;11074;48.596;9.238;2023-01-29T05:48:25;9.27;;;6.82;;
21822;SDS011;11074;48.596;9.238;2023-01-29T05:50:53;9.60;;;7.10;;
21822;SDS011;11074;48.596;9.238;2023-01-29T05:53:27;10.80;;;7.13;;
21822;SDS011;11074;48.596;9.238;2023-01-29T05:55:53;8.75;;;6.63;;
21822;SDS011;11074;48.596;9.238;2023-01-29T05:58:21;10.95;;;7.63;;
21822;SDS011;11074;48.596;9.238;2023-01-29T06:00:49;12.48;;;7.50;;
21822;SDS011;11074;48.596;9.238;2023-01-29T06:03:15;13.38;;;7.63;;
21822;SDS011;11074;48.596;9.238;2023-01-29T06:05:41;11.25;;;7.40;;
21822;SDS011;11074;48.596;9.238;2023-01-29T06:08:07;10.75;;;7.78;;
21822;SDS011;11074;48.596;9.238;2023-01-29T06:10:33;10.35;;;7.20;;
21822;SDS011;11074;48.596;9.238;2023-01-29T06:12:59;9.13;;;6.88;;
21822;SDS011;11074;48.596;9.238;2023-01-29T06:15:27;10.00;;;7.22;;
21822;SDS011;11074;48.596;9.238;2023-01-29T06:17:53;11.73;;;7.60;;
21822;SDS011;11074;48.596;9.238;2023-01-29T06:20:20;10.13;;;7.30;;
21822;SDS011;11074;48.596;9.238;2023-01-29T06:22:47;10.68;;;7.78;;
21822;SDS011;11074;48.596;9.238;2023-01-29T06:25:12;11.75;;;7.43;;
21822;SDS011;11074;48.596;9.238;2023-01-29T06:27:38;11.00;;;7.38;;
21822;SDS011;11074;48.596;9.238;2023-01-29T06:30:04;10.43;;;7.22;;
21822;SDS011;11074;48.596;9.238;2023-01-29T06:32:31;10.10;;;7.50;;
21822;SDS011;11074;48.596;9.238;2023-01-29T06:34:57;10.88;;;7.20;;
21822;SDS011;11074;48.596;9.238;2023-01-29T06:37:22;10.60;;;7.03;;
21822;SDS011;11074;48.596;9.238;2023-01-29T06:39:48;11.60;;;7.40;;
21822;SDS011;11074;48.596;9.238;2023-01-29T06:42:14;10.98;;;7.20;;
21822;SDS011;11074;48.596;9.238;2023-01-29T06:44:40;11.25;;;7.38;;
21822;SDS011;11074;48.596;9.238;2023-01-29T06:47:05;10.90;;;7.47;;
21822;SDS011;11074;48.596;9.238;2023-01-29T06:49:31;11.50;;;8.32;;
21822;SDS011;11074;48.596;9.238;2023-01-29T06:51:57;12.00;;;7.82;;
21822;SDS011;11074;48.596;9.238;2023-01-29T06:54:23;11.18;;;7.72;;
21822;SDS011;11074;48.596;9.238;2023-01-29T06:56:49;11.70;;;7.72;;
21822;SDS011;11074;48.596;9.238;2023-01-29T06:59:15;10.82;;;7.72;;
21822;SDS011;11074;48.596;9.238;2023-01-29T07:01:41;11.15;;;7.25;;
21822;SDS011;11074;48.596;9.238;2023-01-29T07:04:08;10.60;;;7.60;;
21822;SDS011;11074;48.596;9.238;2023-01-29T07:06:35;10.57;;;7.68;;
21822;SDS011;11074;48.596;9.238;2023-01-29T07:09:02;11.07;;;8.20;;
21822;SDS011;11074;48.596;9.238;2023-01-29T07:11:28;11.45;;;7.75;;
21822;SDS011;11074;48.596;9.238;2023-01-29T07:13:54;12.93;;;8.80;;
21822;SDS011;11074;48.596;9.238;2023-01-29T07:16:20;11.68;;;8.15;;
21822;SDS011;11074;48.596;9.238;2023-01-29T07:18:45;11.30;;;8.00;;
21822;SDS011;11074;48.596;9.238;2023-01-29T07:21:11;12.25;;;8.13;;
21822;SDS011;11074;48.596;9.238;2023-01-29T07:23:36;9.75;;;7.50;;
21822;SDS011;11074;48.596;9.238;2023-01-29T07:26:03;9.60;;;6.82;;
21822;SDS011;11074;48.596;9.238;2023-01-29T07:28:30;10.07;;;7.32;;
21822;SDS011;11074;48.596;9.238;2023-01-29T07:30:59;12.50;;;8.10;;
21822;SDS011;11074;48.596;9.238;2023-01-29T07:33:25;26.63;;;12.88;;
21822;SDS011;11074;48.596;9.238;2023-01-29T07:35:51;23.98;;;13.45;;
21822;SDS011;11074;48.596;9.238;2023-01-29T07:38:17;15.27;;;9.75;;
21822;SDS011;11074;48.596;9.238;2023-01-29T07:40:43;13.93;;;8.85;;
21822;SDS011;11074;48.596;9.238;2023-01-29T07:43:09;11.57;;;8.10;;
21822;SDS011;11074;48.596;9.238;2023-01-29T07:45:36;10.40;;;7.00;;
21822;SDS011;11074;48.596;9.238;2023-01-29T07:48:03;10.45;;;6.47;;
21822;SDS011;11074;48.596;9.238;2023-01-29T07:50:32;11.93;;;7.85;;
21822;SDS011;11074;48.596;9.238;2023-01-29T07:52:59;9.60;;;7.32;;
21822;SDS011;11074;48.596;9.238;2023-01-29T07:55:26;10.18;;;6.80;;
21822;SDS011;11074;48.596;9.238;2023-01-29T07:57:58;10.63;;;7.75;;
21822;SDS011;11074;48.596;9.238;2023-01-29T08:00:27;10.73;;;7.85;;
21822;SDS011;11074;48.596;9.238;2023-01-29T08:03:00;12.13;;;7.85;;
21822;SDS011;11074;48.596;9.238;2023-01-29T08:05:33;10.63;;;7.57;;
21822;SDS011;11074;48.596;9.238;2023-01-29T08:07:59;11.88;;;7.57;;
21822;SDS011;11074;48.596;9.238;2023-01-29T08:10:25;9.25;;;7.18;;
21822;SDS011;11074;48.596;9.238;2023-01-29T08:12:55;11.10;;;7.78;;
21822;SDS011;11074;48.596;9.238;2023-01-29T08:15:23;10.40;;;7.38;;
21822;SDS011;11074;48.596;9.238;2023-01-29T08:17:50;10.02;;;7.05;;
21822;SDS011;11074;48.596;9.238;2023-01-29T08:20:18;10.68;;;7.60;;
21822;SDS011;11074;48.596;9.238;2023-01-29T08:22:44;9.88;;;7.20;;
21822;SDS011;11074;48.596;9.238;2023-01-29T08:25:10;9.90;;;7.22;;
21822;SDS011;11074;48.596;9.238;2023-01-29T08:27:37;10.10;;;7.15;;
21822;SDS011;11074;48.596;9.238;2023-01-29T08:30:04;10.50;;;7.57;;
21822;SDS011;11074;48.596;9.238;2023-01-29T08:32:32;9.90;;;6.97;;
21822;SDS011;11074;48.596;9.238;2023-01-29T08:34:57;11.15;;;7.13;;
21822;SDS011;11074;48.596;9.238;2023-01-29T08:37:23;10.13;;;7.18;;
21822;SDS011;11074;48.596;9.238;2023-01-29T08:39:49;11.88;;;7.32;;
21822;SDS011;11074;48.596;9.238;2023-01-29T08:42:14;9.73;;;6.82;;
21822;SDS011;11074;48.596;9.238;2023-01-29T08:44:40;9.50;;;6.80;;
21822;SDS011;11074;48.596;9.238;2023-01-29T08:47:06;8.48;;;6.35;;
21822;SDS011;11074;48.596;9.238;2023-01-29T08:49:32;8.95;;;6.40;;
21822;SDS011;11074;48.596;9.238;2023-01-29T08:51:57;9.60;;;6.53;;
21822;SDS011;11074;48.596;9.238;2023-01-29T08:54:23;8.52;;;6.30;;
21822;SDS011;11074;48.596;9.238;2023-01-29T08:56:49;7.82;;;5.88;;
21822;SDS011;11074;48.596;9.238;2023-01-29T08:59:15;9.95;;;6.40;;
21822;SDS011;11074;48.596;9.238;2023-01-29T09:01:41;10.20;;;6.40;;
21822;SDS011;11074;48.596;9.238;2023-01-29T09:04:07;10.05;;;6.40;;
21822;SDS011;11074;48.596;9.238;2023-01-29T09:06:33;8.15;;;5.13;;
21822;SDS011;11074;48.596;9.238;2023-01-29T09:08:58;8.00;;;5.75;;
21822;SDS011;11074;48.596;9.238;2023-01-29T09:11:24;8.65;;;5.80;;
21822;SDS011;11074;48.596;9.238;2023-01-29T09:13:51;8.13;;;5.85;;
21822;SDS011;11074;48.596;9.238;2023-01-29T09:16:16;8.75;;;5.40;;
21822;SDS011;11074;48.596;9.238;2023-01-29T09:18:42;8.30;;;5.63;;
21822;SDS011;11074;48.596;9.238;2023-01-29T09:21:08;7.35;;;4.90;;
21822;SDS011;11074;48.596;9.238;2023-01-29T09:23:34;5.45;;;4.47;;
21822;SDS011;11074;48.596;9.238;2023-01-29T09:25:59;6.70;;;4.63;;
21822;SDS011;11074;48.596;9.238;2023-01-29T09:28:25;5.97;;;4.30;;
21822;SDS011;11074;48.596;9.238;2023-01-29T09:30:51;5.40;;;3.92;;
21822;SDS011;11074;48.596;9.238;2023-01-29T09:33:17;6.40;;;4.40;;
21822;SDS011;11074;48.596;9.238;2023-01-29T09:35:43;6.30;;;4.32;;
21822;SDS011;11074;48.596;9.238;2023-01-29T09:38:12;6.22;;;4.38;;
21822;SDS011;11074;48.596;9.238;2023-01-29T09:40:45;7.97;;;4.13;;
21822;SDS011;11074;48.596;9.238;2023-01-29T09:46:13;9.23;;;4.95;;
21822;SDS011;11074;48.596;9.238;2023-01-29T09:48:44;5.75;;;3.90;;
21822;SDS011;11074;48.596;9.238;2023-01-29T09:51:22;6.88;;;4.28;;
21822;SDS011;11074;48.596;9.238;2023-01-29T09:54:04;7.13;;;4.80;;
21822;SDS011;11074;48.596;9.238;2023-01-29T09:56:47;7.90;;;6.10;;
21822;SDS011;11074;48.596;9.238;2023-01-29T09:59:20;8.85;;;5.90;;
21822;SDS011;11074;48.596;9.238;2023-01-29T10:02:04;7.28;;;5.15;;
21822;SDS011;11074;48.596;9.238;2023-01-29T10:14:40;5.85;;;4.50;;
21822;SDS011;11074;48.596;9.238;2023-01-29T10:17:27;5.95;;;3.97;;
21822;SDS011;11074;48.596;9.238;2023-01-29T10:20:22;5.93;;;4.45;;
21822;SDS011;11074;48.596;9.238;2023-01-29T10:23:32;8.32;;;4.53;;
21822;SDS011;11074;48.596;9.238;2023-01-29T10:26:02;6.40;;;4.53;;
21822;SDS011;11074;48.596;9.238;2023-01-29T10:28:30;5.55;;;4.15;;
21822;SDS011;11074;48.596;9.238;2023-01-29T10:31:21;7.50;;;4.43;;
21822;SDS011;11074;48.596;9.238;2023-01-29T10:33:53;6.07;;;4.35;;
21822;SDS011;11074;48.596;9.238;2023-01-29T10:36:58;7.28;;;4.35;;
21822;SDS011;11074;48.596;9.238;2023-01-29T10:39:22;5.30;;;3.78;;
21822;SDS011;11074;48.596;9.238;2023-01-29T10:52:53;8.35;;;4.20;;
21822;SDS011;11074;48.596;9.238;2023-01-29T10:55:58;6.25;;;4.10;;
21822;SDS011;11074;48.596;9.238;2023-01-29T10:59:02;6.15;;;3.97;;
21822;SDS011;11074;48.596;9.238;2023-01-29T11:01:49;6.05;;;4.00;;
21822;SDS011;11074;48.596;9.238;2023-01-29T11:04:15;6.88;;;4.45;;
21822;SDS011;11074;48.596;9.238;2023-01-29T11:06:41;7.03;;;4.47;;
21822;SDS011;11074;48.596;9.238;2023-01-29T11:09:26;5.90;;;4.35;;
21822;SDS011;11074;48.596;9.238;2023-01-29T11:14:44;7.43;;;4.57;;
21822;SDS011;11074;48.596;9.238;2023-01-29T11:18:05;6.57;;;4.47;;
21822;SDS011;11074;48.596;9.238;2023-01-29T11:20:38;6.22;;;3.78;;
21822;SDS011;11074;48.596;9.238;2023-01-29T11:23:17;5.70;;;4.18;;
21822;SDS011;11074;48.596;9.238;2023-01-29T11:25:54;6.05;;;3.95;;
21822;SDS011;11074;48.596;9.238;2023-01-29T11:31:24;5.15;;;3.75;;
21822;SDS011;11074;48.596;9.238;2023-01-29T11:34:22;9.00;;;5.82;;
21822;SDS011;11074;48.596;9.238;2023-01-29T11:37:00;8.02;;;5.68;;
21822;SDS011;11074;48.596;9.238;2023-01-29T11:39:39;9.05;;;6.20;;
21822;SDS011;11074;48.596;9.238;2023-01-29T11:42:17;7.03;;;4.70;;
21822;SDS011;11074;48.596;9.238;2023-01-29T11:44:45;5.35;;;3.90;;
21822;SDS011;11074;48.596;9.238;2023-01-29T11:49:53;5.82;;;4.07;;
21822;SDS011;11074;48.596;9.238;2023-01-29T11:52:23;5.43;;;4.03;;
21822;SDS011;11074;48.596;9.238;2023-01-29T11:55:01;9.73;;;4.85;;
21822;SDS011;11074;48.596;9.238;2023-01-29T11:57:41;6.72;;;4.10;;
21822;SDS011;11074;48.596;9.238;2023-01-29T12:02:52;7.60;;;4.43;;
21822;SDS011;11074;48.596;9.238;2023-01-29T12:05:36;5.53;;;4.33;;
21822;SDS011;11074;48.596;9.238;2023-01-29T12:08:09;7.00;;;4.05;;
21822;SDS011;11074;48.596;9.238;2023-01-29T12:10:42;6.88;;;4.07;;
21822;SDS011;11074;48.596;9.238;2023-01-29T12:15:34;5.57;;;4.10;;
21822;SDS011;11074;48.596;9.238;2023-01-29T12:20:47;7.47;;;4.20;;
21822;SDS011;11074;48.596;9.238;2023-01-29T12:23:51;7.38;;;4.32;;
21822;SDS011;11074;48.596;9.238;2023-01-29T12:26:31;6.50;;;4.00;;
21822;SDS011;11074;48.596;9.238;2023-01-29T12:29:14;4.70;;;3.67;;
21822;SDS011;11074;48.596;9.238;2023-01-29T12:32:10;5.10;;;3.43;;
21822;SDS011;11074;48.596;9.238;2023-01-29T12:38:06;4.72;;;3.58;;
21822;SDS011;11074;48.596;9.238;2023-01-29T12:40:50;6.55;;;3.70;;
21822;SDS011;11074;48.596;9.238;2023-01-29T12:43:31;5.50;;;3.45;;
21822;SDS011;11074;48.596;9.238;2023-01-29T12:46:01;7.13;;;3.80;;
21822;SDS011;11074;48.596;9.238;2023-01-29T12:48:31;6.68;;;3.80;;
21822;SDS011;11074;48.596;9.238;2023-01-29T12:51:08;5.10;;;3.58;;
21822;SDS011;11074;48.596;9.238;2023-01-29T12:53:49;9.73;;;4.80;;
21822;SDS011;11074;48.596;9.238;2023-01-29T12:56:28;7.40;;;4.15;;
21822;SDS011;11074;48.596;9.238;2023-01-29T13:01:53;6.03;;;4.13;;
21822;SDS011;11074;48.596;9.238;2023-01-29T13:04:35;5.32;;;3.58;;
21822;SDS011;11074;48.596;9.238;2023-01-29T13:09:53;5.93;;;4.10;;
21822;SDS011;11074;48.596;9.238;2023-01-29T13:12:31;13.00;;;6.22;;
21822;SDS011;11074;48.596;9.238;2023-01-29T13:15:02;11.40;;;6.30;;
21822;SDS011;11074;48.596;9.238;2023-01-29T13:18:19;17.45;;;7.63;;
21822;SDS011;11074;48.596;9.238;2023-01-29T13:20:57;9.07;;;5.28;;
21822;SDS011;11074;48.596;9.238;2023-01-29T13:23:27;8.70;;;6.07;;
21822;SDS011;11074;48.596;9.238;2023-01-29T13:26:01;6.93;;;4.95;;
21822;SDS011;11074;48.596;9.238;2023-01-29T13:28:29;6.07;;;4.45;;
21822;SDS011;11074;48.596;9.238;2023-01-29T13:31:09;6.78;;;4.38;;
21822;SDS011;11074;48.596;9.238;2023-01-29T13:34:14;7.25;;;4.82;;
21822;SDS011;11074;48.596;9.238;2023-01-29T13:36:51;9.10;;;5.80;;
21822;SDS011;11074;48.596;9.238;2023-01-29T13:39:26;8.20;;;5.68;;
21822;SDS011;11074;48.596;9.238;2023-01-29T13:41:54;7.97;;;5.10;;
21822;SDS011;11074;48.596;9.238;2023-01-29T13:44:27;6.72;;;4.50;;
21822;SDS011;11074;48.596;9.238;2023-01-29T13:47:03;5.97;;;4.05;;
21822;SDS011;11074;48.596;9.238;2023-01-29T13:49:44;6.22;;;4.15;;
21822;SDS011;11074;48.596;9.238;2023-01-29T13:52:28;7.93;;;4.57;;
21822;SDS011;11074;48.596;9.238;2023-01-29T14:08:35;9.23;;;5.20;;
21822;SDS011;11074;48.596;9.238;2023-01-29T14:13:43;7.65;;;5.13;;
21822;SDS011;11074;48.596;9.238;2023-01-29T14:18:46;10.57;;;5.20;;
21822;SDS011;11074;48.596;9.238;2023-01-29T14:21:26;9.07;;;4.93;;
21822;SDS011;11074;48.596;9.238;2023-01-29T14:26:43;8.02;;;4.32;;
21822;SDS011;11074;48.596;9.238;2023-01-29T14:31:45;8.35;;;5.10;;
21822;SDS011;11074;48.596;9.238;2023-01-29T14:34:29;6.88;;;4.43;;
21822;SDS011;11074;48.596;9.238;2023-01-29T14:37:02;9.10;;;5.35;;
21822;SDS011;11074;48.596;9.238;2023-01-29T14:39:52;12.07;;;5.65;;
21822;SDS011;11074;48.596;9.238;2023-01-29T14:58:27;6.47;;;4.85;;
21822;SDS011;11074;48.596;9.238;2023-01-29T15:01:34;7.80;;;5.43;;
21822;SDS011;11074;48.596;9.238;2023-01-29T15:06:51;7.90;;;5.40;;
21822;SDS011;11074;48.596;9.238;2023-01-29T15:14:51;5.63;;;4.32;;
21822;SDS011;11074;48.596;9.238;2023-01-29T15:17:40;6.50;;;4.88;;
21822;SDS011;11074;48.596;9.238;2023-01-29T15:20:33;7.90;;;5.20;;
21822;SDS011;11074;48.596;9.238;2023-01-29T15:23:03;7.45;;;5.10;;
21822;SDS011;11074;48.596;9.238;2023-01-29T15:25:49;7.68;;;5.38;;
21822;SDS011;11074;48.596;9.238;2023-01-29T15:28:19;9.38;;;6.07;;
21822;SDS011;11074;48.596;9.238;2023-01-29T15:30:49;10.27;;;5.95;;
21822;SDS011;11074;48.596;9.238;2023-01-29T15:35:45;6.78;;;4.97;;
21822;SDS011;11074;48.596;9.238;2023-01-29T15:40:53;8.80;;;5.45;;
21822;SDS011;11074;48.596;9.238;2023-01-29T15:43:27;8.70;;;5.65;;
21822;SDS011;11074;48.596;9.238;2023-01-29T15:48:50;10.82;;;5.93;;
21822;SDS011;11074;48.596;9.238;2023-01-29T15:51:20;7.55;;;5.68;;
21822;SDS011;11074;48.596;9.238;2023-01-29T15:53:54;9.98;;;6.15;;
21822;SDS011;11074;48.596;9.238;2023-01-29T15:56:27;9.27;;;5.72;;
21822;SDS011;11074;48.596;9.238;2023-01-29T15:59:07;10.07;;;6.20;;
21822;SDS011;11074;48.596;9.238;2023-01-29T16:01:47;9.10;;;6.13;;
21822;SDS011;11074;48.596;9.238;2023-01-29T16:04:16;8.68;;;5.78;;
21822;SDS011;11074;48.596;9.238;2023-01-29T16:06:50;9.95;;;5.60;;
21822;SDS011;11074;48.596;9.238;2023-01-29T16:09:20;8.95;;;5.75;;
21822;SDS011;11074;48.596;9.238;2023-01-29T16:11:49;8.63;;;5.60;;
21822;SDS011;11074;48.596;9.238;2023-01-29T16:14:18;9.95;;;6.20;;
21822;SDS011;11074;48.596;9.238;2023-01-29T16:16:49;8.50;;;6.18;;
21822;SDS011;11074;48.596;9.238;2023-01-29T16:19:24;8.73;;;6.22;;
21822;SDS011;11074;48.596;9.238;2023-01-29T16:22:00;8.57;;;5.55;;
21822;SDS011;11074;48.596;9.238;2023-01-29T16:24:30;8.82;;;5.90;;
21822;SDS011;11074;48.596;9.238;2023-01-29T16:27:02;8.43;;;6.03;;
21822;SDS011;11074;48.596;9.238;2023-01-29T16:29:37;9.90;;;6.28;;
21822;SDS011;11074;48.596;9.238;2023-01-29T16:32:03;9.75;;;6.43;;
21822;SDS011;11074;48.596;9.238;2023-01-29T16:34:31;9.27;;;5.97;;
21822;SDS011;11074;48.596;9.238;2023-01-29T16:37:02;9.18;;;6.00;;
21822;SDS011;11074;48.596;9.238;2023-01-29T16:39:42;11.68;;;6.30;;
21822;SDS011;11074;48.596;9.238;2023-01-29T16:44:51;12.93;;;6.82;;
21822;SDS011;11074;48.596;9.238;2023-01-29T16:53:01;10.98;;;6.50;;
21822;SDS011;11074;48.596;9.238;2023-01-29T16:55:37;10.43;;;6.72;;
21822;SDS011;11074;48.596;9.238;2023-01-29T17:01:05;12.20;;;7.07;;
21822;SDS011;11074;48.596;9.238;2023-01-29T17:03:35;13.80;;;6.70;;
21822;SDS011;11074;48.596;9.238;2023-01-29T17:06:12;11.85;;;6.80;;
21822;SDS011;11074;48.596;9.238;2023-01-29T17:08:47;10.15;;;6.03;;
21822;SDS011;11074;48.596;9.238;2023-01-29T17:11:22;10.68;;;6.50;;
21822;SDS011;11074;48.596;9.238;2023-01-29T17:13:57;10.63;;;6.30;;
21822;SDS011;11074;48.596;9.238;2023-01-29T17:16:28;10.50;;;6.60;;
21822;SDS011;11074;48.596;9.238;2023-01-29T17:18:57;11.35;;;6.60;;
21822;SDS011;11074;48.596;9.238;2023-01-29T17:21:23;10.38;;;6.70;;
21822;SDS011;11074;48.596;9.238;2023-01-29T17:23:50;11.88;;;6.53;;
21822;SDS011;11074;48.596;9.238;2023-01-29T17:26:17;12.48;;;7.07;;
21822;SDS011;11074;48.596;9.238;2023-01-29T17:28:44;11.77;;;6.93;;
21822;SDS011;11074;48.596;9.238;2023-01-29T17:31:14;11.00;;;7.03;;
21822;SDS011;11074;48.596;9.238;2023-01-29T17:33:41;10.65;;;6.80;;
21822;SDS011;11074;48.596;9.238;2023-01-29T17:36:12;11.85;;;7.43;;
21822;SDS011;11074;48.596;9.238;2023-01-29T17:38:40;14.55;;;7.50;;
21822;SDS011;11074;48.596;9.238;2023-01-29T17:43:50;12.25;;;7.32;;
21822;SDS011;11074;48.596;9.238;2023-01-29T17:46:16;13.75;;;7.35;;
21822;SDS011;11074;48.596;9.238;2023-01-29T17:48:43;12.57;;;7.80;;
21822;SDS011;11074;48.596;9.238;2023-01-29T17:51:11;12.93;;;7.45;;
21822;SDS011;11074;48.596;9.238;2023-01-29T17:53:40;12.80;;;7.97;;
21822;SDS011;11074;48.596;9.238;2023-01-29T17:56:09;15.00;;;8.40;;
21822;SDS011;11074;48.596;9.238;2023-01-29T17:58:45;14.50;;;8.32;;
21822;SDS011;11074;48.596;9.238;2023-01-29T18:01:11;11.32;;;7.75;;
21822;SDS011;11074;48.596;9.238;2023-01-29T18:03:37;18.40;;;9.32;;
21822;SDS011;11074;48.596;9.238;2023-01-29T18:06:03;13.63;;;8.48;;